createdAt,value
2019-02-21T00:02:24.212Z,17.53
2019-02-21T00:04:55.058Z,17.23
2019-02-21T00:07:27.064Z,17.93
2019-02-21T00:10:13.220Z,17.90
2019-02-21T00:12:43.910Z,17.30
2019-02-21T00:15:15.999Z,19.53
2019-02-21T00:17:46.724Z,16.77
2019-02-21T00:20:18.410Z,17.77
2019-02-21T00:22:50.136Z,16.27
2019-02-21T00:25:28.505Z,16.83
2019-02-21T00:27:59.940Z,18.40
2019-02-21T00:30:35.234Z,19.10
2019-02-21T00:33:04.518Z,17.80
2019-02-21T00:35:36.243Z,18.13
2019-02-21T00:38:07.559Z,18.23
2019-02-21T00:40:42.814Z,17.90
2019-02-21T00:43:14.559Z,18.30
2019-02-21T00:45:45.981Z,19.83
2019-02-21T00:48:17.378Z,18.73
2019-02-21T00:50:48.692Z,17.77
2019-02-21T00:53:20.357Z,18.83
2019-02-21T00:55:52.173Z,18.47
2019-02-21T00:58:24.192Z,19.07
2019-02-21T01:00:57.712Z,20.83
2019-02-21T01:03:28.647Z,18.53
2019-02-21T01:06:00.616Z,19.17
2019-02-21T01:08:42.740Z,18.50
2019-02-21T01:11:14.039Z,19.57
2019-02-21T01:13:45.894Z,20.27
2019-02-21T01:16:16.648Z,20.70
2019-02-21T01:18:47.960Z,20.37
2019-02-21T01:21:19.336Z,18.87
2019-02-21T01:23:50.373Z,20.27
2019-02-21T01:26:21.679Z,21.60
2019-02-21T01:28:58.066Z,21.50
2019-02-21T01:31:28.989Z,20.63
2019-02-21T01:34:00.702Z,19.47
2019-02-21T01:36:32.521Z,21.23
2019-02-21T01:39:05.212Z,22.33
2019-02-21T01:41:35.815Z,22.13
2019-02-21T01:44:06.513Z,20.47
2019-02-21T01:46:37.934Z,21.17
2019-02-21T01:49:08.592Z,21.97
2019-02-21T01:52:01.105Z,22.27
2019-02-21T01:54:32.996Z,22.30
2019-02-21T01:57:03.589Z,21.83
2019-02-21T01:59:34.943Z,22.07
2019-02-21T03:01:53.898Z,38.47
2019-02-21T03:04:27.197Z,36.47
2019-02-21T03:07:09.694Z,35.53
2019-02-21T03:09:41.187Z,32.27
2019-02-21T03:12:12.732Z,28.90
2019-02-21T03:14:44.402Z,28.23
2019-02-21T03:17:16.156Z,29.53
2019-02-21T03:19:47.571Z,25.93
2019-02-21T03:22:19.242Z,25.73
2019-02-21T03:24:49.942Z,25.90
2019-02-21T03:27:21.302Z,25.63
2019-02-21T03:29:54.706Z,25.57
2019-02-21T03:32:26.468Z,25.40
2019-02-21T03:34:56.883Z,26.37
2019-02-21T03:37:28.639Z,26.47
2019-02-21T03:39:59.215Z,25.83
2019-02-21T03:42:30.556Z,26.67
2019-02-21T03:45:01.965Z,27.47
2019-02-21T03:47:33.599Z,27.13
2019-02-21T03:50:41.894Z,26.70
2019-02-21T03:53:13.538Z,23.63
2019-02-21T03:55:44.528Z,25.73
2019-02-21T03:58:15.901Z,25.33
2019-02-21T04:00:47.029Z,23.53
2019-02-21T04:03:18.209Z,24.33
2019-02-21T04:05:49.197Z,25.80
2019-02-21T04:08:20.661Z,23.00
2019-02-21T04:11:04.182Z,23.43
2019-02-21T04:13:35.953Z,22.27
2019-02-21T04:16:07.394Z,23.07
2019-02-21T04:18:38.827Z,22.23
2019-02-21T04:21:16.942Z,23.20
2019-02-21T04:23:47.999Z,22.53
2019-02-21T04:26:19.652Z,22.80
2019-02-21T04:28:51.652Z,24.63
2019-02-21T04:31:22.919Z,23.10
2019-02-21T04:34:09.490Z,24.40
2019-02-21T04:36:41.036Z,22.77
2019-02-21T04:39:12.481Z,24.30
2019-02-21T04:41:43.926Z,22.97
2019-02-21T04:44:15.356Z,25.63
2019-02-21T04:46:46.748Z,24.03
2019-02-21T04:49:18.018Z,24.70
2019-02-21T04:52:02.489Z,24.50
2019-02-21T04:54:34.078Z,24.37
2019-02-21T04:57:07.616Z,23.13
2019-02-21T04:59:40.560Z,22.70
2019-02-21T05:02:12.504Z,23.17
2019-02-21T05:04:43.922Z,22.97
2019-02-21T05:07:15.929Z,22.73
2019-02-21T05:09:57.538Z,22.63
2019-02-21T05:12:20.185Z,21.70
2019-02-21T05:14:51.531Z,23.00
2019-02-21T05:17:23.159Z,23.00
2019-02-21T05:19:54.741Z,23.57
2019-02-21T05:22:26.435Z,24.73
2019-02-21T05:24:57.768Z,26.00
2019-02-21T05:27:35.623Z,28.63
2019-02-21T05:30:08.889Z,27.47
2019-02-21T05:33:17.833Z,27.57
2019-02-21T05:36:06.536Z,28.57
2019-02-21T05:39:02.023Z,29.00
2019-02-21T05:41:55.004Z,30.20
2019-02-21T05:44:33.821Z,28.77
2019-02-21T05:47:16.719Z,31.40
2019-02-21T05:50:02.724Z,29.33
2019-02-21T05:52:55.971Z,27.43
2019-02-21T05:55:38.240Z,27.67
2019-02-21T05:58:19.266Z,28.13
2019-02-21T06:01:18.648Z,25.83
2019-02-21T06:03:58.404Z,23.27
2019-02-21T06:07:19.021Z,21.13
2019-02-21T06:09:58.426Z,23.07
2019-02-21T06:12:50.030Z,22.17
2019-02-21T06:15:49.814Z,23.67
2019-02-21T06:18:40.597Z,21.83
2019-02-21T06:21:39.518Z,21.43
2019-02-21T06:24:20.135Z,24.10
2019-02-21T06:27:06.045Z,23.10
2019-02-21T06:29:44.147Z,24.27
2019-02-21T06:32:24.503Z,23.73
2019-02-21T06:34:55.255Z,22.60
2019-02-21T06:37:26.777Z,22.93
2019-02-21T06:39:57.872Z,23.87
2019-02-21T06:42:28.565Z,22.67
2019-02-21T06:45:00.625Z,24.27
2019-02-21T06:47:31.658Z,25.47
2019-02-21T06:50:48.526Z,23.77
2019-02-21T06:53:19.722Z,22.23
2019-02-21T06:55:51.149Z,24.13
2019-02-21T06:58:21.865Z,24.60
2019-02-21T07:00:53.266Z,25.97
2019-02-21T07:03:55.099Z,26.30
2019-02-21T07:06:32.044Z,26.73
2019-02-21T07:09:00.059Z,27.80
2019-02-21T07:11:31.100Z,25.83
2019-02-21T07:14:02.244Z,25.33
2019-02-21T07:16:33.376Z,25.57
2019-02-21T07:19:05.036Z,25.27
2019-02-21T07:22:31.890Z,27.37
2019-02-21T07:25:10.306Z,23.60
2019-02-21T07:27:42.082Z,23.70
2019-02-21T07:30:20.207Z,24.97
2019-02-21T07:32:45.863Z,21.80
2019-02-21T07:35:17.482Z,19.83
2019-02-21T07:37:48.247Z,18.77
2019-02-21T07:40:20.477Z,20.37
2019-02-21T07:42:51.704Z,20.23
2019-02-21T07:45:47.305Z,18.50
2019-02-21T07:48:18.701Z,18.40
2019-02-21T07:50:49.770Z,18.03
2019-02-21T07:53:20.406Z,18.00
2019-02-21T07:55:51.470Z,19.03
2019-02-21T07:58:22.807Z,17.90
2019-02-21T08:00:57.551Z,17.90
2019-02-21T08:03:35.745Z,16.53
2019-02-21T08:06:02.185Z,16.27
2019-02-21T08:08:52.588Z,16.00
2019-02-21T08:11:24.378Z,15.60
2019-02-21T08:13:55.302Z,15.83
2019-02-21T08:16:26.639Z,16.33
2019-02-21T08:18:57.410Z,14.20
2019-02-21T08:21:29.368Z,14.67
2019-02-21T08:24:00.382Z,14.90
2019-02-21T08:26:32.066Z,14.07
2019-02-21T08:29:05.972Z,15.53
2019-02-21T08:31:37.411Z,15.30
2019-02-21T08:34:13.009Z,15.30
2019-02-21T08:36:44.013Z,15.77
2019-02-21T08:39:14.682Z,16.00
2019-02-21T08:41:45.348Z,15.87
2019-02-21T08:44:16.209Z,16.70
2019-02-21T08:46:47.627Z,16.17
2019-02-21T08:49:19.355Z,16.13
2019-02-21T08:51:50.507Z,15.07
2019-02-21T08:54:21.546Z,14.80
2019-02-21T08:56:53.615Z,14.27
2019-02-21T08:59:24.898Z,14.57
2019-02-21T09:01:56.200Z,15.67
2019-02-21T09:04:28.048Z,15.17
2019-02-21T09:07:29.640Z,15.27
2019-02-21T09:10:00.658Z,15.67
2019-02-21T09:12:32.283Z,15.83
2019-02-21T09:15:03.782Z,15.83
2019-02-21T09:17:35.394Z,16.87
2019-02-21T09:20:07.734Z,17.03
2019-02-21T09:22:38.796Z,15.90
2019-02-21T09:25:11.732Z,16.73
2019-02-21T09:27:43.248Z,18.07
2019-02-21T09:30:18.044Z,17.93
2019-02-21T09:32:48.791Z,18.60
2019-02-21T09:35:19.723Z,18.63
2019-02-21T09:37:51.567Z,19.33
2019-02-21T09:40:22.901Z,20.50
2019-02-21T09:42:54.712Z,20.60
2019-02-21T09:45:25.725Z,19.60
2019-02-21T09:47:57.685Z,20.43
2019-02-21T09:50:29.666Z,19.60
2019-02-21T09:53:01.901Z,21.30
2019-02-21T09:55:34.791Z,19.90
2019-02-21T09:58:05.753Z,23.70
2019-02-21T10:00:36.767Z,21.13
2019-02-21T10:03:08.688Z,21.13
2019-02-21T10:05:40.225Z,21.63
2019-02-21T10:08:10.884Z,22.03
2019-02-21T10:10:42.007Z,20.97
2019-02-21T10:13:13.834Z,21.70
2019-02-21T10:15:46.964Z,20.67
2019-02-21T10:18:17.735Z,21.57
2019-02-21T10:20:49.064Z,22.07
2019-02-21T10:23:20.815Z,22.20
2019-02-21T10:25:52.560Z,22.00
2019-02-21T10:28:24.291Z,22.47
2019-02-21T10:30:54.952Z,21.60
2019-02-21T10:33:26.010Z,24.47
2019-02-21T10:35:57.477Z,22.77
2019-02-21T10:38:52.888Z,21.37
2019-02-21T10:41:24.619Z,22.33
2019-02-21T10:43:55.979Z,22.80
2019-02-21T10:46:26.779Z,21.03
2019-02-21T10:48:59.596Z,22.20
2019-02-21T10:51:30.980Z,21.77
2019-02-21T10:54:02.499Z,22.90
2019-02-21T10:56:33.695Z,19.77
2019-02-21T10:59:04.408Z,21.37
2019-02-21T11:01:35.973Z,20.87
2019-02-21T11:04:07.657Z,20.43
2019-02-21T11:06:38.469Z,16.77
2019-02-21T11:09:14.642Z,16.03
2019-02-21T11:11:45.690Z,15.40
2019-02-21T11:14:17.086Z,17.60
2019-02-21T11:16:48.424Z,16.60
2019-02-21T11:19:19.519Z,19.03
2019-02-21T11:21:51.508Z,17.10
2019-02-21T11:24:22.879Z,18.73
2019-02-21T11:26:54.210Z,16.07
2019-02-21T11:29:26.232Z,16.37
2019-02-21T11:31:57.887Z,17.43
2019-02-21T11:34:29.175Z,17.13
2019-02-21T11:37:00.266Z,17.57
2019-02-21T11:39:32.297Z,16.40
2019-02-21T11:42:03.801Z,16.30
2019-02-21T11:44:35.451Z,17.17
2019-02-21T11:47:11.413Z,17.20
2019-02-21T11:49:42.828Z,17.77
2019-02-21T11:52:14.355Z,16.27
2019-02-21T11:54:45.047Z,17.13
2019-02-21T11:57:16.544Z,17.83
2019-02-21T11:59:47.590Z,16.53
2019-02-21T12:02:18.962Z,17.80
2019-02-21T12:04:50.378Z,16.93
2019-02-21T12:07:21.786Z,17.77
2019-02-21T12:09:52.095Z,15.77
2019-02-21T12:12:23.184Z,16.87
2019-02-21T12:14:54.847Z,15.43
2019-02-21T12:17:27.614Z,15.13
2019-02-21T12:19:58.665Z,15.53
2019-02-21T12:22:30.121Z,16.00
2019-02-21T12:25:01.903Z,14.43
2019-02-21T12:27:33.291Z,13.73
2019-02-21T12:30:04.096Z,14.60
2019-02-21T12:32:35.394Z,14.43
2019-02-21T12:35:11.157Z,13.70
2019-02-21T12:37:42.377Z,12.73
2019-02-21T12:40:16.064Z,13.40
2019-02-21T12:42:47.735Z,14.23
2019-02-21T12:45:19.551Z,15.43
2019-02-21T12:47:53.852Z,14.13
2019-02-21T12:50:26.135Z,13.80
2019-02-21T12:52:57.867Z,12.93
2019-02-21T12:55:34.287Z,14.07
2019-02-21T12:58:05.991Z,14.77
2019-02-21T13:00:37.083Z,17.63
2019-02-21T13:03:08.379Z,15.98
2019-02-21T13:05:41.342Z,15.70
2019-02-21T13:08:15.896Z,15.50
2019-02-21T13:11:03.540Z,22.90
2019-02-21T13:13:34.675Z,21.30
2019-02-21T13:16:07.536Z,20.63
2019-02-21T13:18:40.488Z,20.50
2019-02-21T13:21:11.935Z,19.33
2019-02-21T13:23:43.603Z,18.50
2019-02-21T13:26:15.046Z,20.47
2019-02-21T13:28:46.457Z,21.87
2019-02-21T13:31:17.399Z,22.17
2019-02-21T13:33:49.316Z,21.57
2019-02-21T13:36:20.985Z,22.33
2019-02-21T13:38:52.597Z,21.40
2019-02-21T13:41:28.928Z,20.60
2019-02-21T13:44:15.036Z,20.80
2019-02-21T13:46:47.495Z,22.80
2019-02-21T13:49:33.746Z,23.33
2019-02-21T13:52:04.433Z,22.97
2019-02-21T13:54:35.093Z,22.90
2019-02-21T13:58:02.013Z,21.10
2019-02-21T14:00:32.970Z,21.53
2019-02-21T14:03:57.119Z,21.97
2019-02-21T14:10:26.806Z,20.07
2019-02-21T14:12:58.367Z,20.67
2019-02-21T14:15:30.233Z,19.77
2019-02-21T14:18:01.446Z,19.60
2019-02-21T14:20:44.621Z,19.80
2019-02-21T14:23:06.720Z,18.97
2019-02-21T14:25:40.688Z,20.93
2019-02-21T14:28:20.011Z,20.23
2019-02-21T14:30:51.510Z,20.20
2019-02-21T14:33:23.402Z,20.32
2019-02-21T14:36:16.724Z,19.80
2019-02-21T14:38:42.879Z,21.40
2019-02-21T14:41:14.659Z,20.97
2019-02-21T14:43:45.626Z,19.80
2019-02-21T14:46:16.797Z,20.03
2019-02-21T14:48:48.277Z,19.75
2019-02-21T14:51:20.373Z,19.87
2019-02-21T14:54:24.253Z,20.03
2019-02-21T14:56:55.546Z,19.90
2019-02-21T14:59:26.768Z,21.10
2019-02-21T15:01:57.835Z,19.43
2019-02-21T15:04:28.556Z,19.70
2019-02-21T15:06:59.706Z,20.60
2019-02-21T15:09:30.877Z,18.90
2019-02-21T15:12:02.501Z,20.10
2019-02-21T15:14:33.931Z,19.07
2019-02-21T15:17:05.561Z,18.90
2019-02-21T15:19:36.653Z,19.13
2019-02-21T15:22:20.213Z,18.37
2019-02-21T15:24:51.627Z,17.93
2019-02-21T15:27:27.649Z,19.53
2019-02-21T15:29:58.950Z,19.43
2019-02-21T15:32:30.362Z,18.83
2019-02-21T15:35:02.773Z,17.93
2019-02-21T15:37:34.105Z,17.70
2019-02-21T15:40:05.365Z,17.40
2019-02-21T15:42:46.010Z,17.10
2019-02-21T15:45:23.491Z,17.53
2019-02-21T15:47:51.698Z,15.70
2019-02-21T15:50:40.953Z,18.17
2019-02-21T15:53:12.752Z,16.80
2019-02-21T15:55:43.101Z,16.43
2019-02-21T15:58:15.006Z,16.50
2019-02-21T16:01:08.928Z,17.10
2019-02-21T16:03:59.993Z,14.97
2019-02-21T16:06:31.699Z,15.90
2019-02-21T16:09:58.427Z,16.50
2019-02-21T16:12:30.234Z,15.27
2019-02-21T16:15:02.425Z,15.10
2019-02-21T16:17:37.167Z,15.13
2019-02-21T16:20:07.989Z,15.03
2019-02-21T16:22:47.120Z,14.53
2019-02-21T16:25:20.270Z,13.90
2019-02-21T16:27:51.405Z,13.87
2019-02-21T16:30:22.790Z,13.07
2019-02-21T16:33:10.025Z,13.13
2019-02-21T16:35:41.315Z,13.30
2019-02-21T16:38:12.469Z,12.47
2019-02-21T16:40:43.751Z,11.33
2019-02-21T16:43:14.779Z,11.73
2019-02-21T16:45:51.378Z,13.30
2019-02-21T16:49:32.222Z,9.87
2019-02-21T16:52:12.616Z,11.27
2019-02-21T16:54:43.958Z,10.23
2019-02-21T16:57:26.050Z,10.43
2019-02-21T16:59:57.344Z,10.17
2019-02-21T17:02:28.828Z,9.73
2019-02-21T17:04:59.888Z,10.37
2019-02-21T17:07:40.355Z,10.00
2019-02-21T17:10:14.186Z,9.03
2019-02-21T17:13:15.994Z,11.10
2019-02-21T17:15:47.202Z,9.03
2019-02-21T17:18:18.000Z,10.57
2019-02-21T17:20:49.744Z,9.63
2019-02-21T17:23:23.061Z,9.43
2019-02-21T17:25:54.818Z,10.37
2019-02-21T17:28:25.866Z,10.13
2019-02-21T17:30:57.068Z,9.30
2019-02-21T17:33:28.228Z,9.20
2019-02-21T17:36:00.338Z,9.30
2019-02-21T17:38:31.672Z,10.30
2019-02-21T17:41:03.104Z,10.13
2019-02-21T17:43:33.919Z,9.13
2019-02-21T17:46:05.088Z,10.20
2019-02-21T17:48:36.840Z,10.97
2019-02-21T17:51:08.870Z,9.97
2019-02-21T17:53:40.265Z,10.27
2019-02-21T17:56:12.070Z,10.97
2019-02-21T17:58:43.653Z,11.67
2019-02-21T18:01:14.556Z,12.10
2019-02-21T18:03:45.662Z,11.43
2019-02-21T18:06:16.383Z,13.87
2019-02-21T18:08:48.107Z,11.30
2019-02-21T18:11:38.747Z,11.53
2019-02-21T18:14:09.679Z,11.80
2019-02-21T18:16:41.351Z,11.67
2019-02-21T18:19:12.685Z,11.47
2019-02-21T18:21:43.999Z,12.83
2019-02-21T18:24:15.974Z,12.20
2019-02-21T18:26:46.708Z,12.10
2019-02-21T18:29:18.105Z,12.40
2019-02-21T18:31:49.466Z,12.77
2019-02-21T18:34:21.682Z,13.43
2019-02-21T18:36:52.738Z,12.60
2019-02-21T18:39:23.946Z,13.30
2019-02-21T18:41:55.421Z,11.80
2019-02-21T18:44:26.837Z,12.73
2019-02-21T18:46:58.255Z,11.70
2019-02-21T18:49:29.719Z,11.93
2019-02-21T18:52:01.382Z,12.73
2019-02-21T18:54:33.266Z,12.53
2019-02-21T18:57:04.865Z,12.33
2019-02-21T18:59:36.475Z,11.10
2019-02-21T19:02:08.084Z,12.13
2019-02-21T19:04:40.486Z,11.03
2019-02-21T19:07:12.082Z,10.63
2019-02-21T19:09:43.155Z,11.00
2019-02-21T19:12:14.232Z,9.97
2019-02-21T19:14:46.043Z,10.53
2019-02-21T19:17:17.826Z,9.47
2019-02-21T19:19:49.645Z,9.83
2019-02-21T19:22:20.669Z,8.37
2019-02-21T19:24:52.212Z,9.20
2019-02-21T19:27:42.290Z,11.03
2019-02-21T19:30:19.585Z,11.23
2019-02-21T19:32:51.188Z,10.87
2019-02-21T19:35:26.801Z,10.60
2019-02-21T19:38:09.475Z,10.60
2019-02-21T19:40:30.639Z,10.47
2019-02-21T19:43:02.390Z,10.93
2019-02-21T19:45:38.952Z,10.60
2019-02-21T19:48:10.040Z,10.30
2019-02-21T19:50:41.672Z,9.67
2019-02-21T19:53:14.437Z,9.03
2019-02-21T19:55:45.697Z,8.87
2019-02-21T19:58:17.537Z,8.23
2019-02-21T20:00:48.864Z,8.80
2019-02-21T20:03:22.181Z,8.90
2019-02-21T20:06:08.269Z,8.27
2019-02-21T20:08:44.934Z,8.10
2019-02-21T20:11:28.694Z,7.60
2019-02-21T20:14:06.933Z,7.00
2019-02-21T20:16:48.979Z,7.00
2019-02-21T20:19:32.306Z,7.57
2019-02-21T20:22:09.272Z,8.00
2019-02-21T20:24:41.565Z,7.03
2019-02-21T20:27:19.927Z,7.33
2019-02-21T20:29:51.053Z,8.03
2019-02-21T20:32:41.339Z,8.70
2019-02-21T20:35:13.368Z,7.90
2019-02-21T20:37:45.083Z,8.43
2019-02-21T20:40:16.793Z,9.23
2019-02-21T20:42:59.316Z,8.17
2019-02-21T20:45:29.706Z,8.03
2019-02-21T20:48:00.999Z,7.60
2019-02-21T20:50:32.304Z,8.70
2019-02-21T20:53:03.105Z,8.47
2019-02-21T20:55:43.032Z,8.40
2019-02-21T20:58:06.975Z,8.03
2019-02-21T21:00:38.646Z,9.47
2019-02-21T21:03:09.944Z,9.57
2019-02-21T21:05:41.243Z,9.23
2019-02-21T21:08:11.549Z,8.20
2019-02-21T21:10:56.161Z,8.23
2019-02-21T21:13:27.707Z,9.10
2019-02-21T21:16:05.241Z,8.47
2019-02-21T21:18:37.214Z,9.57
2019-02-21T21:21:08.835Z,7.27
2019-02-21T21:23:40.082Z,7.43
2019-02-21T21:26:11.157Z,7.47
2019-02-21T21:28:46.147Z,7.73
2019-02-21T21:31:27.208Z,10.73
2019-02-21T21:33:58.112Z,11.60
2019-02-21T21:36:33.407Z,8.33
2019-02-21T21:39:06.081Z,8.53
2019-02-21T21:41:37.128Z,7.30
2019-02-21T21:44:09.870Z,7.30
2019-02-21T21:46:42.170Z,7.97
2019-02-21T21:49:14.734Z,8.67
2019-02-21T21:51:46.337Z,8.40
2019-02-21T21:54:31.483Z,8.30
2019-02-21T21:57:03.032Z,9.87
2019-02-21T21:59:40.573Z,10.00
2019-02-21T22:02:13.607Z,9.20
2019-02-21T22:04:48.337Z,9.23
2019-02-21T22:07:22.169Z,8.20
2019-02-21T22:10:04.273Z,8.80
2019-02-21T22:12:37.650Z,8.17
2019-02-21T22:15:09.906Z,8.67
2019-02-21T22:17:42.289Z,9.03
2019-02-21T22:20:13.203Z,9.53
2019-02-21T22:22:50.924Z,9.17
2019-02-21T22:25:25.966Z,8.90
2019-02-21T22:28:08.864Z,9.37
2019-02-21T22:30:40.468Z,9.10
2019-02-21T22:33:11.825Z,9.30
2019-02-21T22:35:43.276Z,8.77
2019-02-21T22:38:15.366Z,8.90
2019-02-21T22:41:00.252Z,7.40
2019-02-21T22:43:31.617Z,8.33
2019-02-21T22:46:02.584Z,7.77
2019-02-21T22:48:46.661Z,7.97
2019-02-21T22:51:13.380Z,8.03
2019-02-21T22:54:18.821Z,8.00
2019-02-21T22:57:07.948Z,8.17
2019-02-21T22:59:48.971Z,7.87
2019-02-21T23:02:20.740Z,7.90
2019-02-21T23:05:47.353Z,9.47
2019-02-21T23:08:44.393Z,9.67
2019-02-21T23:11:15.273Z,8.87
2019-02-21T23:13:48.078Z,7.73
2019-02-21T23:16:21.193Z,8.53
2019-02-21T23:18:53.006Z,8.53
2019-02-21T23:21:24.628Z,8.47
2019-02-21T23:23:57.272Z,8.53
2019-02-21T23:26:29.254Z,8.50
2019-02-21T23:29:14.962Z,10.27
2019-02-21T23:31:45.570Z,9.27
2019-02-21T23:34:35.996Z,9.20
2019-02-21T23:37:07.250Z,11.00
2019-02-21T23:39:38.868Z,9.37
2019-02-21T23:42:12.716Z,10.10
2019-02-21T23:44:44.273Z,9.40
2019-02-21T23:47:16.726Z,9.17
2019-02-21T23:49:47.629Z,9.63
2019-02-21T23:52:21.279Z,8.90
2019-02-21T23:54:51.952Z,8.13
2019-02-21T23:57:46.258Z,8.27
